createdAt,value
2018-09-28T00:02:28.325Z,39.96
2018-09-28T00:04:57.369Z,40.11
2018-09-28T00:07:26.424Z,39.28
2018-09-28T00:09:55.809Z,39.63
2018-09-28T00:12:24.850Z,39.90
2018-09-28T00:14:53.897Z,39.81
2018-09-28T00:17:23.173Z,40.11
2018-09-28T00:19:52.236Z,40.10
2018-09-28T00:22:21.276Z,40.29
2018-09-28T00:24:50.609Z,40.56
2018-09-28T00:27:19.782Z,40.51
2018-09-28T00:29:48.816Z,40.33
2018-09-28T00:32:18.004Z,40.17
2018-09-28T00:34:47.057Z,40.29
2018-09-28T00:37:16.114Z,40.29
2018-09-28T00:39:45.500Z,39.33
2018-09-28T00:42:14.580Z,40.34
2018-09-28T00:44:43.659Z,39.85
2018-09-28T00:47:12.852Z,39.87
2018-09-28T00:49:41.888Z,39.81
2018-09-28T00:52:10.917Z,39.52
2018-09-28T00:54:40.249Z,39.33
2018-09-28T00:57:09.317Z,39.08
2018-09-28T00:59:38.373Z,39.50
2018-09-28T01:02:07.571Z,39.58
2018-09-28T01:04:36.626Z,39.68
2018-09-28T01:07:05.693Z,39.52
2018-09-28T01:09:35.041Z,39.38
2018-09-28T01:12:04.087Z,38.93
2018-09-28T01:14:33.138Z,38.22
2018-09-28T01:17:02.331Z,38.54
2018-09-28T01:19:31.367Z,38.69
2018-09-28T01:22:00.519Z,38.49
2018-09-28T01:24:29.841Z,38.50
2018-09-28T01:26:58.870Z,38.09
2018-09-28T01:29:27.917Z,38.34
2018-09-28T01:31:57.101Z,38.27
2018-09-28T01:34:26.220Z,37.38
2018-09-28T01:36:55.247Z,37.74
2018-09-28T01:39:24.608Z,37.95
2018-09-28T01:41:53.638Z,37.17
2018-09-28T01:44:22.685Z,37.17
2018-09-28T01:46:51.909Z,36.69
2018-09-28T01:49:20.926Z,36.56
2018-09-28T01:51:49.976Z,37.09
2018-09-28T01:54:19.413Z,37.40
2018-09-28T01:56:48.426Z,37.09
2018-09-28T01:59:17.468Z,37.65
2018-09-28T02:01:46.906Z,39.26
2018-09-28T02:04:15.957Z,39.79
2018-09-28T02:06:44.992Z,40.44
2018-09-28T02:09:14.179Z,40.01
2018-09-28T02:11:43.203Z,39.15
2018-09-28T02:14:12.246Z,39.00
2018-09-28T02:16:41.725Z,39.99
2018-09-28T02:19:10.770Z,39.50
2018-09-28T02:21:39.840Z,40.06
2018-09-28T02:24:09.049Z,40.80
2018-09-28T02:26:38.063Z,42.38
2018-09-28T02:29:07.096Z,42.02
2018-09-28T02:31:36.422Z,43.00
2018-09-28T02:34:05.451Z,42.88
2018-09-28T02:36:34.474Z,41.90
2018-09-28T02:39:03.880Z,44.27
2018-09-28T02:41:32.903Z,42.44
2018-09-28T02:44:01.932Z,42.68
2018-09-28T02:46:31.301Z,43.20
2018-09-28T02:49:00.337Z,41.50
2018-09-28T02:51:29.344Z,44.33
2018-09-28T02:53:58.505Z,44.78
2018-09-28T02:56:27.513Z,43.89
2018-09-28T02:58:56.534Z,43.89
2018-09-28T03:01:25.856Z,44.08
2018-09-28T03:03:54.894Z,49.75
2018-09-28T03:06:24.051Z,58.43
2018-09-28T03:08:53.116Z,53.33
2018-09-28T03:14:15.450Z,45.77
2018-09-28T03:16:44.471Z,45.06
2018-09-28T03:19:13.491Z,44.21
2018-09-28T03:21:42.666Z,43.34
2018-09-28T03:24:11.762Z,43.04
2018-09-28T03:26:40.783Z,42.73
2018-09-28T03:29:10.123Z,41.97
2018-09-28T03:31:39.140Z,42.47
2018-09-28T03:34:08.214Z,42.52
2018-09-28T03:36:37.393Z,42.52
2018-09-28T03:39:07.786Z,42.68
2018-09-28T03:41:36.828Z,42.02
2018-09-28T03:44:06.596Z,42.24
2018-09-28T03:46:35.848Z,42.71
2018-09-28T03:49:04.901Z,42.64
2018-09-28T03:51:34.287Z,41.63
2018-09-28T03:54:03.337Z,42.45
2018-09-28T03:56:32.353Z,41.60
2018-09-28T03:59:01.563Z,41.10
2018-09-28T04:01:30.581Z,41.60
2018-09-28T04:03:59.595Z,41.05
2018-09-28T04:06:28.928Z,41.78
2018-09-28T04:08:57.962Z,43.97
2018-09-28T04:11:26.944Z,44.46
2018-09-28T04:13:56.119Z,43.86
2018-09-28T04:16:25.114Z,43.78
2018-09-28T04:18:54.130Z,43.48
2018-09-28T04:21:23.301Z,43.73
2018-09-28T04:23:52.339Z,42.20
2018-09-28T04:26:21.361Z,44.19
2018-09-28T04:28:50.807Z,42.32
2018-09-28T04:31:19.814Z,44.73
2018-09-28T04:33:48.809Z,44.86
2018-09-28T04:36:17.982Z,44.70
2018-09-28T04:38:47.014Z,44.68
2018-09-28T04:41:16.025Z,44.95
2018-09-28T04:43:45.354Z,44.86
2018-09-28T04:46:14.353Z,45.21
2018-09-28T04:48:43.354Z,44.66
2018-09-28T04:51:12.784Z,44.49
2018-09-28T04:53:41.809Z,43.95
2018-09-28T04:56:10.811Z,43.86
2018-09-28T04:58:39.974Z,43.41
2018-09-28T05:01:09.040Z,43.11
2018-09-28T05:03:38.097Z,43.50
2018-09-28T05:06:07.280Z,42.92
2018-09-28T05:08:36.356Z,42.93
2018-09-28T05:11:05.449Z,43.17
2018-09-28T05:13:34.711Z,42.06
2018-09-28T05:16:03.813Z,41.12
2018-09-28T05:18:33.328Z,40.86
2018-09-28T05:21:03.055Z,41.00
2018-09-28T05:23:33.319Z,42.88
2018-09-28T05:26:02.578Z,43.08
2018-09-28T05:28:31.904Z,42.37
2018-09-28T05:31:01.426Z,41.91
2018-09-28T05:33:31.039Z,42.87
2018-09-28T05:36:00.807Z,42.22
2018-09-28T05:38:29.956Z,43.40
2018-09-28T05:40:59.534Z,42.11
2018-09-28T05:43:28.839Z,43.41
2018-09-28T05:45:57.977Z,43.96
2018-09-28T05:48:27.059Z,43.51
2018-09-28T05:50:56.538Z,46.21
2018-09-28T05:53:25.685Z,44.15
2018-09-28T05:55:54.805Z,44.22
2018-09-28T05:58:29.258Z,44.60
2018-09-28T06:01:03.489Z,43.69
2018-09-28T06:03:32.784Z,43.70
2018-09-28T06:06:04.524Z,45.27
2018-09-28T06:08:34.021Z,46.46
2018-09-28T06:11:03.104Z,44.44
2018-09-28T06:13:32.316Z,44.60
2018-09-28T06:16:01.581Z,44.25
2018-09-28T06:18:31.059Z,43.99
2018-09-28T06:21:00.130Z,43.35
2018-09-28T06:23:30.989Z,43.60
2018-09-28T06:26:01.487Z,42.80
2018-09-28T06:28:30.717Z,43.07
2018-09-28T06:31:00.330Z,40.47
2018-09-28T06:33:29.587Z,40.97
2018-09-28T06:35:59.517Z,38.60
2018-09-28T06:38:28.977Z,38.59
2018-09-28T06:40:58.728Z,38.28
2018-09-28T06:43:27.791Z,39.95
2018-09-28T06:45:57.161Z,39.72
2018-09-28T06:48:26.200Z,40.55
2018-09-28T06:50:55.233Z,38.31
2018-09-28T06:53:24.383Z,39.51
2018-09-28T06:55:53.416Z,38.54
2018-09-28T06:58:22.462Z,39.03
2018-09-28T07:00:51.850Z,38.79
2018-09-28T07:03:20.909Z,40.36
2018-09-28T07:05:50.090Z,38.37
2018-09-28T07:08:19.358Z,38.76
2018-09-28T07:10:48.426Z,39.53
2018-09-28T07:13:17.523Z,38.78
2018-09-28T07:15:46.965Z,40.05
2018-09-28T07:18:19.514Z,39.01
2018-09-28T07:20:49.085Z,39.92
2018-09-28T07:23:19.644Z,40.42
2018-09-28T07:25:50.975Z,39.68
2018-09-28T07:28:21.398Z,37.57
2018-09-28T07:30:50.580Z,37.60
2018-09-28T07:33:19.945Z,37.79
2018-09-28T07:35:49.070Z,37.11
2018-09-28T07:38:18.418Z,35.77
2018-09-28T07:40:48.605Z,36.32
2018-09-28T07:43:17.710Z,35.28
2018-09-28T07:45:53.240Z,34.69
2018-09-28T07:48:22.902Z,34.38
2018-09-28T07:50:51.983Z,34.30
2018-09-28T07:53:21.161Z,35.67
2018-09-28T07:55:50.714Z,32.66
2018-09-28T07:58:19.859Z,32.54
2018-09-28T08:00:49.029Z,34.38
2018-09-28T08:03:18.469Z,32.53
2018-09-28T08:05:47.658Z,32.86
2018-09-28T08:08:16.792Z,32.42
2018-09-28T08:10:46.525Z,32.58
2018-09-28T08:13:15.938Z,32.19
2018-09-28T08:15:45.392Z,32.51
2018-09-28T08:18:15.259Z,33.13
2018-09-28T08:20:44.896Z,32.04
2018-09-28T08:23:14.693Z,30.18
2018-09-28T08:25:46.049Z,30.81
2018-09-28T08:28:15.242Z,32.18
2018-09-28T08:30:44.342Z,31.87
2018-09-28T08:33:13.817Z,31.73
2018-09-28T08:35:45.948Z,29.38
2018-09-28T08:38:15.432Z,30.96
2018-09-28T08:40:45.119Z,31.07
2018-09-28T08:43:14.629Z,29.34
2018-09-28T08:45:43.881Z,30.22
2018-09-28T08:48:13.052Z,30.46
2018-09-28T08:50:42.169Z,29.94
2018-09-28T08:53:11.668Z,28.59
2018-09-28T08:55:40.783Z,30.21
2018-09-28T08:58:10.074Z,28.60
2018-09-28T09:00:39.547Z,29.55
2018-09-28T09:03:08.671Z,30.26
2018-09-28T09:05:37.749Z,29.47
2018-09-28T09:08:07.447Z,28.22
2018-09-28T09:10:36.586Z,27.91
2018-09-28T09:13:05.739Z,26.41
2018-09-28T09:15:35.217Z,26.28
2018-09-28T09:18:06.490Z,26.77
2018-09-28T09:20:36.324Z,26.23
2018-09-28T09:23:05.481Z,27.03
2018-09-28T09:25:36.218Z,26.65
2018-09-28T09:28:05.623Z,26.74
2018-09-28T09:30:36.193Z,26.41
2018-09-28T09:33:05.245Z,26.47
2018-09-28T09:35:38.733Z,26.00
2018-09-28T09:38:07.813Z,25.78
2018-09-28T09:40:36.893Z,26.35
2018-09-28T09:43:06.412Z,27.40
2018-09-28T09:45:35.574Z,25.94
2018-09-28T09:48:05.117Z,27.22
2018-09-28T09:50:34.574Z,26.35
2018-09-28T09:53:03.838Z,25.10
2018-09-28T09:55:33.678Z,25.77
2018-09-28T09:58:02.913Z,25.80
2018-09-28T10:00:38.788Z,27.19
2018-09-28T10:03:13.535Z,24.51
2018-09-28T10:05:42.909Z,24.88
2018-09-28T10:08:14.147Z,24.98
2018-09-28T10:10:43.948Z,25.12
2018-09-28T10:13:13.068Z,25.94
2018-09-28T10:15:43.342Z,24.27
2018-09-28T10:18:12.837Z,25.20
2018-09-28T10:20:43.173Z,23.06
2018-09-28T10:23:16.266Z,24.79
2018-09-28T10:25:45.403Z,25.55
2018-09-28T10:28:14.677Z,24.07
2018-09-28T10:30:44.194Z,23.41
2018-09-28T10:33:13.407Z,22.93
2018-09-28T10:35:42.592Z,22.55
2018-09-28T10:38:11.921Z,23.44
2018-09-28T10:40:41.368Z,23.38
2018-09-28T10:43:10.446Z,22.73
2018-09-28T10:45:40.066Z,23.61
2018-09-28T10:48:09.297Z,23.35
2018-09-28T10:50:38.387Z,22.34
2018-09-28T10:53:08.007Z,23.63
2018-09-28T10:55:37.171Z,21.43
2018-09-28T10:58:06.347Z,22.68
2018-09-28T11:00:35.818Z,23.32
2018-09-28T11:03:04.964Z,22.20
2018-09-28T11:05:34.081Z,22.41
2018-09-28T11:08:03.521Z,21.69
2018-09-28T11:10:32.675Z,21.12
2018-09-28T11:13:01.810Z,21.49
2018-09-28T11:15:31.377Z,21.47
2018-09-28T11:18:00.993Z,22.42
2018-09-28T11:20:30.179Z,20.69
2018-09-28T11:22:59.686Z,21.34
2018-09-28T11:25:28.825Z,21.47
2018-09-28T11:27:58.005Z,23.20
2018-09-28T11:30:27.467Z,23.20
2018-09-28T11:32:56.582Z,22.92
2018-09-28T11:35:25.707Z,21.36
2018-09-28T11:37:54.915Z,21.87
2018-09-28T11:40:24.097Z,21.30
2018-09-28T11:42:53.337Z,22.28
2018-09-28T11:45:22.575Z,22.62
2018-09-28T11:47:51.724Z,22.60
2018-09-28T11:50:21.285Z,20.97
2018-09-28T11:52:51.640Z,21.22
2018-09-28T11:55:21.865Z,21.24
2018-09-28T11:57:51.151Z,21.92
2018-09-28T12:00:20.674Z,24.21
2018-09-28T12:02:50.298Z,23.48
2018-09-28T12:05:19.541Z,22.72
2018-09-28T12:07:49.100Z,22.23
2018-09-28T12:10:18.477Z,20.87
2018-09-28T12:12:47.721Z,21.10
2018-09-28T12:15:16.910Z,22.77
2018-09-28T12:17:46.016Z,22.72
2018-09-28T12:20:15.182Z,22.96
2018-09-28T12:22:44.380Z,22.28
2018-09-28T12:25:13.470Z,22.65
2018-09-28T12:27:42.598Z,21.06
2018-09-28T12:30:12.056Z,21.60
2018-09-28T12:32:41.261Z,21.37
2018-09-28T12:35:10.363Z,19.37
2018-09-28T12:37:39.863Z,21.14
2018-09-28T12:40:08.988Z,20.98
2018-09-28T12:42:38.112Z,21.25
2018-09-28T12:45:07.514Z,20.04
2018-09-28T12:47:36.562Z,19.57
2018-09-28T12:50:05.720Z,20.04
2018-09-28T12:52:35.135Z,20.23
2018-09-28T12:55:04.244Z,20.21
2018-09-28T12:57:33.411Z,20.54
2018-09-28T13:00:02.926Z,20.70
2018-09-28T13:02:32.083Z,20.44
2018-09-28T13:05:01.210Z,20.51
2018-09-28T13:07:30.660Z,20.47
2018-09-28T13:09:59.765Z,20.62
2018-09-28T13:12:28.953Z,19.84
2018-09-28T13:14:58.285Z,21.04
2018-09-28T13:17:27.318Z,19.40
2018-09-28T13:19:56.397Z,19.57
2018-09-28T13:22:25.548Z,19.34
2018-09-28T13:24:54.658Z,20.46
2018-09-28T13:27:23.766Z,20.80
2018-09-28T13:29:53.361Z,20.76
2018-09-28T13:32:22.505Z,20.46
2018-09-28T13:34:51.702Z,21.44
2018-09-28T13:37:20.946Z,21.87
2018-09-28T13:39:50.061Z,20.40
2018-09-28T13:42:19.184Z,21.35
2018-09-28T13:44:48.391Z,21.69
2018-09-28T13:47:17.565Z,21.00
2018-09-28T13:49:46.652Z,20.27
2018-09-28T13:52:16.067Z,20.67
2018-09-28T13:54:45.554Z,20.52
2018-09-28T13:57:14.601Z,20.79
2018-09-28T13:59:43.824Z,21.54
2018-09-28T14:02:12.954Z,20.53
2018-09-28T14:04:42.195Z,20.96
2018-09-28T14:07:11.896Z,20.80
2018-09-28T14:09:40.861Z,20.53
2018-09-28T14:12:10.009Z,20.29
2018-09-28T14:14:39.258Z,19.96
2018-09-28T14:17:08.439Z,19.78
2018-09-28T14:19:37.659Z,20.52
2018-09-28T14:22:06.882Z,21.39
2018-09-28T14:24:35.982Z,20.72
2018-09-28T14:27:05.084Z,19.80
2018-09-28T14:29:34.369Z,20.43
2018-09-28T14:32:03.552Z,20.72
2018-09-28T14:34:32.787Z,20.84
2018-09-28T14:37:02.340Z,21.56
2018-09-28T14:39:31.464Z,20.78
2018-09-28T14:42:00.679Z,21.21
2018-09-28T14:44:29.851Z,20.43
2018-09-28T14:46:59.043Z,20.45
2018-09-28T14:49:28.780Z,21.42
2018-09-28T14:51:58.220Z,21.51
2018-09-28T14:54:27.387Z,21.50
2018-09-28T14:56:56.507Z,22.73
2018-09-28T14:59:25.775Z,22.81
2018-09-28T15:01:54.866Z,22.12
2018-09-28T15:04:24.038Z,22.60
2018-09-28T15:06:53.547Z,22.04
2018-09-28T15:09:29.633Z,22.43
2018-09-28T15:12:03.062Z,22.17
2018-09-28T15:14:32.207Z,22.01
2018-09-28T15:17:01.392Z,22.70
2018-09-28T15:19:30.806Z,23.01
2018-09-28T15:21:59.936Z,23.19
2018-09-28T15:24:29.065Z,23.23
2018-09-28T15:26:58.519Z,23.94
2018-09-28T15:29:27.645Z,23.97
2018-09-28T15:31:56.789Z,24.33
2018-09-28T15:34:26.246Z,25.33
2018-09-28T15:36:55.367Z,26.11
2018-09-28T15:39:24.540Z,26.47
2018-09-28T15:41:56.202Z,25.91
2018-09-28T15:44:26.238Z,27.11
2018-09-28T15:46:55.441Z,26.60
2018-09-28T15:49:24.609Z,25.68
2018-09-28T15:51:53.740Z,25.53
2018-09-28T15:54:22.929Z,26.62
2018-09-28T15:56:52.475Z,26.69
2018-09-28T15:59:22.142Z,26.24
2018-09-28T16:01:51.322Z,26.11
2018-09-28T16:04:21.161Z,26.24
2018-09-28T16:06:52.982Z,25.54
2018-09-28T16:11:50.407Z,25.28
2018-09-28T16:14:19.955Z,25.53
2018-09-28T16:16:49.522Z,25.39
2018-09-28T16:21:47.527Z,25.78
2018-09-28T16:24:16.750Z,25.71
2018-09-28T16:26:46.222Z,26.09
2018-09-28T16:29:15.721Z,26.21
2018-09-28T16:31:45.624Z,25.90
2018-09-28T16:34:14.887Z,26.41
2018-09-28T16:36:44.061Z,26.27
2018-09-28T16:39:13.311Z,26.35
2018-09-28T16:41:43.176Z,26.94
2018-09-28T16:44:13.324Z,27.19
2018-09-28T16:46:42.426Z,26.77
2018-09-28T16:49:12.536Z,27.49
2018-09-28T16:51:41.734Z,27.43
2018-09-28T16:54:11.158Z,27.69
2018-09-28T16:56:41.671Z,27.47
2018-09-28T16:59:10.775Z,27.79
2018-09-28T17:01:39.964Z,27.79
2018-09-28T17:04:09.145Z,28.15
2018-09-28T17:06:39.612Z,27.72
2018-09-28T17:09:10.049Z,27.57
2018-09-28T17:11:40.973Z,27.68
2018-09-28T17:14:10.125Z,28.33
2018-09-28T17:16:40.301Z,28.67
2018-09-28T17:19:10.414Z,29.29
2018-09-28T17:21:39.567Z,29.25
2018-09-28T17:24:08.722Z,29.38
2018-09-28T17:26:38.231Z,30.53
2018-09-28T17:29:07.370Z,30.36
2018-09-28T17:31:36.575Z,30.80
2018-09-28T17:34:06.030Z,30.57
2018-09-28T17:36:35.563Z,31.23
2018-09-28T17:39:07.261Z,30.63
2018-09-28T17:41:36.442Z,30.96
2018-09-28T17:44:05.878Z,30.89
2018-09-28T17:46:35.893Z,30.80
2018-09-28T17:49:06.182Z,30.83
2018-09-28T17:51:36.295Z,31.26
2018-09-28T17:54:05.506Z,31.41
2018-09-28T17:56:34.703Z,31.16
2018-09-28T17:59:04.015Z,32.03
2018-09-28T18:01:33.186Z,31.76
2018-09-28T18:04:02.709Z,31.55
2018-09-28T18:06:31.886Z,30.89
2018-09-28T18:09:01.026Z,31.34
2018-09-28T18:11:31.434Z,31.19
2018-09-28T18:14:00.738Z,31.44
2018-09-28T18:16:31.186Z,31.11
2018-09-28T18:19:00.720Z,30.76
2018-09-28T18:21:29.821Z,31.66
2018-09-28T18:23:58.998Z,31.79
2018-09-28T18:26:28.239Z,31.65
2018-09-28T18:28:59.282Z,31.30
2018-09-28T18:31:28.437Z,31.26
2018-09-28T18:34:00.363Z,31.92
2018-09-28T18:36:29.482Z,41.00
2018-09-28T18:38:59.121Z,43.87
2018-09-28T18:41:28.598Z,33.14
2018-09-28T18:43:58.103Z,32.96
2018-09-28T18:46:27.437Z,33.02
2018-09-28T18:48:57.031Z,32.49
2018-09-28T18:51:26.137Z,32.56
2018-09-28T18:53:55.813Z,33.01
2018-09-28T18:56:25.414Z,32.83
2018-09-28T18:58:54.663Z,33.18
2018-09-28T19:01:24.733Z,33.47
2018-09-28T19:03:54.143Z,32.82
2018-09-28T19:06:23.236Z,33.73
2018-09-28T19:08:52.783Z,36.13
2018-09-28T19:11:22.501Z,35.00
2018-09-28T19:13:52.267Z,35.12
2018-09-28T19:16:22.792Z,35.41
2018-09-28T19:18:51.990Z,37.20
2018-09-28T19:21:21.156Z,39.43
2018-09-28T19:23:50.369Z,40.51
2018-09-28T19:26:19.761Z,41.42
2018-09-28T19:28:49.621Z,37.99
2018-09-28T19:31:19.414Z,37.28
2018-09-28T19:33:48.869Z,38.99
2018-09-28T19:36:18.315Z,36.43
2018-09-28T19:38:47.533Z,36.86
2018-09-28T19:41:17.345Z,37.30
2018-09-28T19:43:46.504Z,37.54
2018-09-28T19:46:16.715Z,40.75
2018-09-28T19:48:47.078Z,37.90
2018-09-28T19:51:16.270Z,39.44
2018-09-28T19:53:47.361Z,38.70
2018-09-28T19:56:16.819Z,38.76
2018-09-28T19:58:45.935Z,38.53
2018-09-28T20:01:15.723Z,38.64
2018-09-28T20:03:45.261Z,38.43
2018-09-28T20:06:14.448Z,38.04
2018-09-28T20:08:44.024Z,38.36
2018-09-28T20:11:13.221Z,38.05
2018-09-28T20:13:42.341Z,37.77
2018-09-28T20:16:11.460Z,37.31
2018-09-28T20:18:40.983Z,37.16
2018-09-28T20:21:10.137Z,36.76
2018-09-28T20:23:39.291Z,38.21
2018-09-28T20:26:08.478Z,41.87
2018-09-28T20:28:37.790Z,39.91
2018-09-28T20:31:08.009Z,40.17
2018-09-28T20:33:37.543Z,40.99
2018-09-28T20:36:06.322Z,41.35
2018-09-28T20:38:35.491Z,44.90
2018-09-28T20:41:05.253Z,42.96
2018-09-28T20:43:34.754Z,42.63
2018-09-28T20:46:04.048Z,41.45
2018-09-28T20:48:33.501Z,42.64
2018-09-28T20:51:02.637Z,42.18
2018-09-28T20:53:31.766Z,41.28
2018-09-28T20:56:00.956Z,42.70
2018-09-28T20:58:30.125Z,42.90
2018-09-28T21:00:59.304Z,42.56
2018-09-28T21:03:28.742Z,41.68
2018-09-28T21:05:57.860Z,41.39
2018-09-28T21:08:26.980Z,42.85
2018-09-28T21:10:56.175Z,42.29
2018-09-28T21:13:25.206Z,42.22
2018-09-28T21:15:54.333Z,43.63
2018-09-28T21:18:23.465Z,41.93
2018-09-28T21:20:52.554Z,41.16
2018-09-28T21:23:21.690Z,44.20
2018-09-28T21:25:51.176Z,44.56
2018-09-28T21:28:20.331Z,42.87
2018-09-28T21:30:49.528Z,41.11
2018-09-28T21:33:18.683Z,40.56
2018-09-28T21:35:47.838Z,41.69
2018-09-28T21:38:16.943Z,42.26
2018-09-28T21:40:46.379Z,41.72
2018-09-28T21:43:15.472Z,40.48
2018-09-28T21:45:44.583Z,39.18
2018-09-28T21:48:14.092Z,39.20
2018-09-28T21:50:43.217Z,38.96
2018-09-28T21:53:12.279Z,39.12
2018-09-28T21:55:41.427Z,37.88
2018-09-28T21:58:10.536Z,37.70
2018-09-28T22:00:40.207Z,37.60
2018-09-28T22:03:10.168Z,37.36
2018-09-28T22:05:39.681Z,37.58
2018-09-28T22:08:09.249Z,38.88
2018-09-28T22:10:39.088Z,38.85
2018-09-28T22:13:08.560Z,38.94
2018-09-28T22:15:37.974Z,39.27
2018-09-28T22:18:07.478Z,39.54
2018-09-28T22:20:36.944Z,40.39
2018-09-28T22:23:06.775Z,40.72
2018-09-28T22:25:36.566Z,38.67
2018-09-28T22:28:06.048Z,41.97
2018-09-28T22:30:35.616Z,43.07
2018-09-28T22:33:05.154Z,42.72
2018-09-28T22:35:34.705Z,47.25
2018-09-28T22:38:04.173Z,44.55
2018-09-28T22:40:34.010Z,46.75
2018-09-28T22:43:03.464Z,46.66
2018-09-28T22:45:32.893Z,46.19
2018-09-28T22:48:02.402Z,44.16
2018-09-28T22:50:31.831Z,42.59
2018-09-28T22:53:01.258Z,42.27
2018-09-28T22:55:31.033Z,42.77
2018-09-28T22:58:00.445Z,43.09
2018-09-28T23:00:29.865Z,42.34
2018-09-28T23:02:59.697Z,42.51
2018-09-28T23:05:29.145Z,42.37
2018-09-28T23:07:58.738Z,42.64
2018-09-28T23:10:28.533Z,42.60
2018-09-28T23:12:57.945Z,43.32
2018-09-28T23:15:27.374Z,44.02
2018-09-28T23:17:56.867Z,44.29
2018-09-28T23:20:26.075Z,44.93
2018-09-28T23:22:55.123Z,45.18
2018-09-28T23:25:24.517Z,44.86
2018-09-28T23:27:53.568Z,45.36
2018-09-28T23:30:22.598Z,44.92
2018-09-28T23:32:52.002Z,45.36
2018-09-28T23:35:21.077Z,44.73
2018-09-28T23:37:50.122Z,44.74
2018-09-28T23:40:19.627Z,45.18
2018-09-28T23:42:48.652Z,43.21
2018-09-28T23:45:17.693Z,42.19
2018-09-28T23:47:46.776Z,42.15
2018-09-28T23:50:15.813Z,41.72
2018-09-28T23:52:44.883Z,41.30
2018-09-28T23:55:13.989Z,40.96
2018-09-28T23:57:43.011Z,40.42
